createdAt,value
2023-01-29T00:01:56.760Z,13.77
2023-01-29T00:04:24.277Z,14.02
2023-01-29T00:06:51.192Z,14.27
2023-01-29T00:09:18.638Z,15.57
2023-01-29T00:11:45.611Z,12.90
2023-01-29T00:14:13.240Z,15.52
2023-01-29T00:16:40.093Z,12.57
2023-01-29T00:19:07.330Z,13.68
2023-01-29T00:21:34.658Z,14.95
2023-01-29T00:24:01.608Z,13.15
2023-01-29T00:26:29.014Z,12.88
2023-01-29T00:29:02.003Z,14.75
2023-01-29T00:31:29.319Z,15.23
2023-01-29T00:33:56.425Z,14.15
2023-01-29T00:36:25.358Z,15.10
2023-01-29T00:39:02.897Z,14.75
2023-01-29T00:41:51.101Z,15.35
2023-01-29T00:44:37.306Z,14.52
2023-01-29T00:47:05.202Z,13.88
2023-01-29T00:49:32.045Z,13.13
2023-01-29T00:52:17.429Z,12.57
2023-01-29T00:54:44.429Z,11.35
2023-01-29T00:57:36.204Z,12.05
2023-01-29T01:00:07.635Z,11.18
2023-01-29T01:02:53.165Z,14.80
2023-01-29T01:05:20.428Z,12.55
2023-01-29T01:07:53.567Z,13.43
2023-01-29T01:10:29.287Z,13.70
2023-01-29T01:13:07.189Z,12.45
2023-01-29T01:15:37.437Z,11.80
2023-01-29T01:18:05.049Z,10.15
2023-01-29T01:20:35.501Z,11.35
2023-01-29T01:23:03.254Z,11.65
2023-01-29T01:25:30.065Z,12.73
2023-01-29T01:30:26.959Z,10.63
2023-01-29T01:32:54.111Z,12.40
2023-01-29T01:35:21.137Z,12.82
2023-01-29T01:37:48.108Z,12.60
2023-01-29T01:40:19.320Z,11.63
2023-01-29T01:42:55.668Z,12.52
2023-01-29T01:45:36.576Z,13.35
2023-01-29T01:48:13.204Z,11.65
2023-01-29T01:51:06.854Z,11.27
2023-01-29T01:53:52.610Z,11.65
2023-01-29T01:56:38.161Z,13.25
2023-01-29T01:59:10.920Z,10.60
2023-01-29T02:01:42.885Z,12.32
2023-01-29T02:04:35.157Z,12.65
2023-01-29T02:07:23.819Z,10.93
2023-01-29T02:10:01.851Z,11.07
2023-01-29T02:12:31.215Z,12.05
2023-01-29T02:14:58.169Z,11.60
2023-01-29T02:17:25.243Z,12.30
2023-01-29T02:20:24.438Z,10.05
2023-01-29T02:23:12.207Z,14.20
2023-01-29T02:26:27.632Z,11.63
2023-01-29T02:29:22.695Z,12.30
2023-01-29T02:32:17.538Z,12.75
2023-01-29T02:35:14.653Z,12.70
2023-01-29T02:38:18.220Z,12.30
2023-01-29T02:41:01.616Z,11.95
2023-01-29T02:43:58.021Z,13.50
2023-01-29T02:46:37.342Z,12.77
2023-01-29T02:49:24.716Z,13.95
2023-01-29T02:52:17.394Z,12.98
2023-01-29T02:54:53.459Z,14.45
2023-01-29T02:57:29.112Z,12.85
2023-01-29T03:00:09.599Z,13.50
2023-01-29T03:02:49.704Z,13.00
2023-01-29T03:05:30.991Z,11.90
2023-01-29T03:08:06.692Z,14.90
2023-01-29T03:10:58.659Z,13.27
2023-01-29T03:14:07.465Z,14.27
2023-01-29T03:16:45.837Z,12.73
2023-01-29T03:19:26.032Z,13.77
2023-01-29T03:21:59.972Z,12.48
2023-01-29T03:25:08.987Z,12.75
2023-01-29T03:28:02.518Z,14.82
2023-01-29T03:30:59.426Z,12.60
2023-01-29T03:33:47.054Z,12.43
2023-01-29T03:36:26.879Z,13.10
2023-01-29T03:38:53.946Z,11.80
2023-01-29T03:41:36.796Z,12.15
2023-01-29T03:44:43.366Z,14.60
2023-01-29T03:47:27.582Z,14.32
2023-01-29T03:50:13.206Z,12.93
2023-01-29T03:52:46.101Z,13.35
2023-01-29T03:55:22.957Z,14.07
2023-01-29T03:58:00.959Z,15.50
2023-01-29T04:00:37.791Z,13.77
2023-01-29T04:03:17.062Z,13.20
2023-01-29T04:06:09.870Z,12.15
2023-01-29T04:09:01.873Z,12.98
2023-01-29T04:11:31.105Z,13.55
2023-01-29T04:13:58.471Z,13.23
2023-01-29T04:16:44.774Z,12.20
2023-01-29T04:19:30.631Z,12.77
2023-01-29T04:22:21.132Z,13.85
2023-01-29T04:24:50.143Z,14.38
2023-01-29T04:27:44.365Z,14.73
2023-01-29T04:30:39.674Z,13.98
2023-01-29T04:33:22.171Z,14.30
2023-01-29T04:36:18.246Z,15.60
2023-01-29T04:39:03.776Z,13.48
2023-01-29T04:41:59.803Z,16.20
2023-01-29T04:44:40.087Z,16.00
2023-01-29T04:47:49.487Z,14.15
2023-01-29T04:50:30.207Z,15.68
2023-01-29T04:53:15.737Z,15.13
2023-01-29T04:55:55.382Z,13.77
2023-01-29T04:58:41.720Z,13.57
2023-01-29T05:01:14.151Z,15.38
2023-01-29T05:03:45.902Z,17.00
2023-01-29T05:06:14.063Z,14.88
2023-01-29T05:08:42.275Z,14.38
2023-01-29T05:11:10.066Z,14.48
2023-01-29T05:13:41.091Z,15.15
2023-01-29T05:16:12.749Z,15.57
2023-01-29T05:18:40.974Z,13.60
2023-01-29T05:21:09.451Z,15.00
2023-01-29T05:23:36.938Z,15.18
2023-01-29T05:26:04.424Z,14.73
2023-01-29T05:28:31.669Z,14.82
2023-01-29T05:30:58.644Z,15.52
2023-01-29T05:33:31.313Z,15.70
2023-01-29T05:36:01.297Z,14.07
2023-01-29T05:38:28.270Z,14.73
2023-01-29T05:40:55.122Z,13.95
2023-01-29T05:43:25.114Z,14.75
2023-01-29T05:46:01.581Z,16.70
2023-01-29T05:48:29.917Z,18.25
2023-01-29T05:51:04.317Z,17.00
2023-01-29T05:53:32.412Z,18.13
2023-01-29T05:56:02.480Z,17.50
2023-01-29T05:58:31.854Z,17.13
2023-01-29T06:00:58.734Z,18.55
2023-01-29T06:03:25.875Z,19.23
2023-01-29T06:05:52.735Z,17.17
2023-01-29T06:08:19.664Z,18.45
2023-01-29T06:10:46.457Z,24.90
2023-01-29T06:13:13.346Z,23.10
2023-01-29T06:15:41.843Z,22.30
2023-01-29T06:18:08.671Z,17.67
2023-01-29T06:20:35.610Z,18.58
2023-01-29T06:23:02.625Z,21.80
2023-01-29T06:25:29.486Z,19.00
2023-01-29T06:27:59.310Z,21.52
2023-01-29T06:30:26.843Z,19.77
2023-01-29T06:32:58.780Z,20.33
2023-01-29T06:35:26.080Z,19.33
2023-01-29T06:37:53.326Z,18.08
2023-01-29T06:40:20.377Z,19.13
2023-01-29T06:42:47.185Z,21.35
2023-01-29T06:45:14.218Z,20.67
2023-01-29T06:47:41.239Z,17.67
2023-01-29T06:50:08.837Z,21.20
2023-01-29T06:52:35.702Z,18.42
2023-01-29T06:55:02.603Z,22.10
2023-01-29T06:57:30.182Z,18.15
2023-01-29T06:59:57.161Z,19.02
2023-01-29T07:02:24.157Z,21.05
2023-01-29T07:04:51.238Z,18.90
2023-01-29T07:07:18.519Z,18.42
2023-01-29T07:09:45.518Z,25.05
2023-01-29T07:12:12.348Z,22.33
2023-01-29T07:14:39.231Z,19.13
2023-01-29T07:17:06.045Z,19.58
2023-01-29T07:19:33.033Z,18.83
2023-01-29T07:22:02.467Z,18.73
2023-01-29T07:26:56.857Z,16.55
2023-01-29T07:29:23.970Z,16.05
2023-01-29T07:31:50.959Z,17.58
2023-01-29T07:34:17.989Z,16.02
2023-01-29T07:36:44.893Z,20.08
2023-01-29T07:39:11.784Z,22.05
2023-01-29T07:41:38.589Z,17.90
2023-01-29T07:44:15.501Z,17.35
2023-01-29T07:46:42.427Z,19.38
2023-01-29T07:49:09.367Z,21.50
2023-01-29T07:51:36.232Z,18.73
2023-01-29T07:54:03.119Z,18.70
2023-01-29T07:56:30.130Z,23.45
2023-01-29T07:58:57.039Z,21.20
2023-01-29T08:01:24.067Z,17.85
2023-01-29T08:03:51.494Z,16.80
2023-01-29T08:06:19.327Z,16.00
2023-01-29T08:08:46.292Z,18.85
2023-01-29T08:11:13.216Z,15.82
2023-01-29T08:13:40.106Z,15.15
2023-01-29T08:16:07.740Z,15.02
2023-01-29T08:18:38.605Z,16.30
2023-01-29T08:21:05.858Z,15.35
2023-01-29T08:23:32.702Z,16.92
2023-01-29T08:25:59.695Z,14.55
2023-01-29T08:28:26.748Z,15.73
2023-01-29T08:30:53.815Z,17.40
2023-01-29T08:33:29.826Z,15.93
2023-01-29T08:36:04.362Z,14.45
2023-01-29T08:38:31.345Z,16.48
2023-01-29T08:40:58.239Z,15.52
2023-01-29T08:43:25.264Z,16.92
2023-01-29T08:45:52.254Z,21.80
2023-01-29T08:48:19.112Z,22.02
2023-01-29T08:50:46.127Z,14.20
2023-01-29T08:53:13.069Z,14.80
2023-01-29T08:55:41.362Z,15.88
2023-01-29T08:58:11.607Z,14.60
2023-01-29T09:00:39.009Z,17.70
2023-01-29T09:03:07.800Z,14.48
2023-01-29T09:05:39.461Z,14.65
2023-01-29T09:08:09.026Z,13.98
2023-01-29T09:13:03.104Z,13.80
2023-01-29T09:15:30.167Z,14.05
2023-01-29T09:17:57.053Z,13.02
2023-01-29T09:20:24.074Z,14.30
2023-01-29T09:22:53.538Z,14.38
2023-01-29T09:27:47.346Z,13.70
2023-01-29T09:30:14.668Z,15.02
2023-01-29T09:32:57.265Z,12.95
2023-01-29T09:35:24.515Z,14.20
2023-01-29T09:37:52.360Z,12.02
2023-01-29T09:40:34.500Z,11.85
2023-01-29T09:43:43.609Z,14.77
2023-01-29T09:46:27.345Z,12.35
2023-01-29T09:49:07.093Z,14.68
2023-01-29T09:51:45.022Z,13.50
2023-01-29T09:54:29.676Z,20.05
2023-01-29T09:56:57.515Z,13.93
2023-01-29T09:59:29.872Z,19.38
2023-01-29T10:02:14.685Z,18.67
2023-01-29T10:05:26.935Z,18.60
2023-01-29T10:09:07.781Z,14.02
2023-01-29T10:12:07.841Z,11.85
2023-01-29T10:15:17.929Z,11.50
2023-01-29T10:18:31.706Z,12.93
2023-01-29T10:21:19.665Z,11.90
2023-01-29T10:24:10.853Z,13.07
2023-01-29T10:26:40.593Z,11.80
2023-01-29T10:29:14.408Z,12.15
2023-01-29T10:31:41.483Z,11.90
2023-01-29T10:34:22.155Z,13.60
2023-01-29T10:36:50.404Z,13.05
2023-01-29T10:39:23.215Z,13.15
2023-01-29T10:42:29.711Z,11.30
2023-01-29T10:45:30.441Z,12.43
2023-01-29T10:48:31.031Z,12.00
2023-01-29T10:51:22.485Z,11.85
2023-01-29T10:54:13.333Z,10.35
2023-01-29T10:57:01.432Z,11.88
2023-01-29T11:00:13.156Z,9.55
2023-01-29T11:02:48.644Z,8.90
2023-01-29T11:05:31.129Z,11.95
2023-01-29T11:08:21.578Z,13.77
2023-01-29T11:11:11.818Z,11.88
2023-01-29T11:14:10.754Z,9.60
2023-01-29T11:16:56.442Z,11.10
2023-01-29T11:19:40.095Z,11.30
2023-01-29T11:22:19.823Z,9.25
2023-01-29T11:25:07.918Z,13.25
2023-01-29T11:27:52.116Z,9.90
2023-01-29T11:30:28.346Z,13.30
2023-01-29T11:33:18.573Z,11.85
2023-01-29T11:35:46.131Z,10.63
2023-01-29T11:38:15.719Z,9.70
2023-01-29T11:40:43.584Z,11.35
2023-01-29T11:43:30.871Z,9.77
2023-01-29T11:46:05.043Z,9.20
2023-01-29T11:48:58.988Z,9.25
2023-01-29T11:51:39.989Z,9.20
2023-01-29T11:54:15.124Z,8.85
2023-01-29T11:56:45.415Z,9.25
2023-01-29T11:59:32.292Z,8.88
2023-01-29T12:02:28.236Z,9.88
2023-01-29T12:04:59.564Z,8.30
2023-01-29T12:07:26.687Z,7.85
2023-01-29T12:09:59.710Z,10.00
2023-01-29T12:12:34.768Z,9.43
2023-01-29T12:15:09.020Z,8.63
2023-01-29T12:17:39.541Z,9.32
2023-01-29T12:20:18.474Z,7.47
2023-01-29T12:23:21.027Z,9.30
2023-01-29T12:26:15.842Z,8.43
2023-01-29T12:28:48.226Z,7.07
2023-01-29T12:31:33.995Z,7.53
2023-01-29T12:34:43.500Z,6.90
2023-01-29T12:38:16.908Z,7.43
2023-01-29T12:41:06.027Z,7.45
2023-01-29T12:43:42.907Z,8.05
2023-01-29T12:46:22.488Z,7.45
2023-01-29T12:48:50.660Z,7.47
2023-01-29T12:51:28.015Z,8.68
2023-01-29T12:54:04.981Z,8.73
2023-01-29T12:56:52.711Z,7.45
2023-01-29T12:59:36.585Z,7.03
2023-01-29T13:02:42.101Z,8.05
2023-01-29T13:05:37.669Z,14.50
2023-01-29T13:08:16.317Z,7.57
2023-01-29T13:10:50.619Z,7.00
2023-01-29T13:13:54.090Z,7.10
2023-01-29T13:16:30.931Z,8.40
2023-01-29T13:19:04.654Z,6.88
2023-01-29T13:21:39.847Z,7.43
2023-01-29T13:24:23.899Z,7.30
2023-01-29T13:26:51.536Z,6.47
2023-01-29T13:29:28.457Z,6.28
2023-01-29T13:31:58.528Z,8.45
2023-01-29T13:34:46.535Z,7.13
2023-01-29T13:37:29.891Z,6.30
2023-01-29T13:39:59.551Z,6.70
2023-01-29T13:42:49.987Z,7.07
2023-01-29T13:45:21.426Z,6.32
2023-01-29T13:47:49.999Z,6.80
2023-01-29T13:50:36.054Z,6.88
2023-01-29T13:53:06.651Z,9.65
2023-01-29T13:55:39.337Z,11.95
2023-01-29T13:58:17.061Z,9.75
2023-01-29T14:00:43.879Z,7.88
2023-01-29T14:03:13.448Z,7.95
2023-01-29T14:05:42.197Z,7.00
2023-01-29T14:08:08.978Z,7.50
2023-01-29T14:10:37.636Z,7.18
2023-01-29T14:13:04.420Z,7.43
2023-01-29T14:15:36.893Z,7.13
2023-01-29T14:18:18.883Z,7.65
2023-01-29T14:20:48.464Z,6.95
2023-01-29T14:23:30.679Z,7.50
2023-01-29T14:26:02.712Z,7.60
2023-01-29T14:28:32.560Z,8.35
2023-01-29T14:31:00.036Z,8.73
2023-01-29T14:33:40.998Z,7.97
2023-01-29T14:36:15.955Z,7.93
2023-01-29T14:38:52.533Z,7.50
2023-01-29T14:41:35.687Z,8.68
2023-01-29T14:44:46.787Z,8.80
2023-01-29T14:47:28.932Z,7.70
2023-01-29T14:49:59.044Z,8.48
2023-01-29T14:52:33.722Z,8.45
2023-01-29T14:55:06.757Z,11.95
2023-01-29T14:57:34.102Z,7.93
2023-01-29T15:00:07.211Z,7.95
2023-01-29T15:02:45.480Z,8.50
2023-01-29T15:05:21.690Z,10.07
2023-01-29T15:08:08.384Z,9.68
2023-01-29T15:11:12.487Z,9.30
2023-01-29T15:14:15.045Z,8.05
2023-01-29T15:17:06.725Z,9.88
2023-01-29T15:19:44.796Z,11.85
2023-01-29T15:22:15.855Z,11.82
2023-01-29T15:24:44.433Z,12.07
2023-01-29T15:27:19.473Z,9.85
2023-01-29T15:29:58.984Z,10.95
2023-01-29T15:32:40.315Z,10.20
2023-01-29T15:35:27.512Z,10.40
2023-01-29T15:38:18.338Z,9.85
2023-01-29T15:41:04.608Z,10.30
2023-01-29T15:43:37.414Z,9.38
2023-01-29T15:46:28.048Z,10.32
2023-01-29T15:49:00.108Z,9.85
2023-01-29T15:51:28.998Z,9.45
2023-01-29T15:54:05.688Z,8.90
2023-01-29T15:56:53.081Z,9.00
2023-01-29T15:59:29.342Z,9.23
2023-01-29T16:01:56.430Z,10.98
2023-01-29T16:04:31.388Z,10.93
2023-01-29T16:07:00.494Z,9.23
2023-01-29T16:09:28.793Z,11.98
2023-01-29T16:11:58.829Z,11.68
2023-01-29T16:14:26.762Z,13.70
2023-01-29T16:16:53.986Z,10.88
2023-01-29T16:19:27.002Z,13.60
2023-01-29T16:22:02.259Z,12.60
2023-01-29T16:24:32.539Z,14.85
2023-01-29T16:27:07.190Z,12.15
2023-01-29T16:29:35.583Z,11.95
2023-01-29T16:32:03.626Z,18.77
2023-01-29T16:34:48.283Z,14.57
2023-01-29T16:37:23.518Z,13.60
2023-01-29T16:39:52.723Z,14.80
2023-01-29T16:42:32.247Z,14.13
2023-01-29T16:45:05.215Z,15.35
2023-01-29T16:47:43.621Z,12.25
2023-01-29T16:50:36.046Z,14.40
2023-01-29T16:53:23.289Z,11.40
2023-01-29T16:55:52.493Z,14.30
2023-01-29T16:58:22.827Z,11.90
2023-01-29T17:00:59.414Z,11.68
2023-01-29T17:03:30.039Z,12.20
2023-01-29T17:05:57.195Z,12.18
2023-01-29T17:08:32.139Z,14.68
2023-01-29T17:11:00.106Z,12.65
2023-01-29T17:13:38.623Z,19.42
2023-01-29T17:16:32.584Z,13.73
2023-01-29T17:21:29.162Z,11.82
2023-01-29T17:23:56.306Z,13.32
2023-01-29T17:26:24.677Z,10.30
2023-01-29T17:28:53.506Z,9.38
2023-01-29T17:31:20.473Z,13.82
2023-01-29T17:33:47.891Z,12.15
2023-01-29T17:36:17.739Z,12.18
2023-01-29T17:38:47.021Z,10.43
2023-01-29T17:43:40.792Z,10.55
2023-01-29T17:46:14.875Z,8.80
2023-01-29T17:48:41.938Z,10.65
2023-01-29T17:51:14.627Z,10.07
2023-01-29T17:53:45.993Z,11.48
2023-01-29T17:56:21.092Z,11.88
2023-01-29T17:58:48.063Z,12.20
2023-01-29T18:01:14.983Z,11.00
2023-01-29T18:03:41.893Z,12.35
2023-01-29T18:06:10.847Z,14.27
2023-01-29T18:08:39.707Z,11.50
2023-01-29T18:11:07.048Z,18.65
2023-01-29T18:13:36.121Z,10.07
2023-01-29T18:16:03.284Z,12.45
2023-01-29T18:18:30.405Z,17.20
2023-01-29T18:20:57.311Z,14.25
2023-01-29T18:23:24.354Z,12.65
2023-01-29T18:25:52.715Z,13.65
2023-01-29T18:28:19.741Z,14.02
2023-01-29T18:30:47.569Z,12.98
2023-01-29T18:33:16.440Z,11.90
2023-01-29T18:35:49.467Z,10.02
2023-01-29T18:38:17.732Z,11.20
2023-01-29T18:40:44.616Z,12.43
2023-01-29T18:43:11.579Z,12.27
2023-01-29T18:45:38.534Z,14.27
2023-01-29T18:48:05.862Z,13.15
2023-01-29T18:50:33.396Z,13.60
2023-01-29T18:53:00.736Z,12.68
2023-01-29T18:55:27.696Z,14.15
2023-01-29T18:58:26.624Z,11.82
2023-01-29T19:00:42.641Z,11.50
2023-01-29T19:03:10.789Z,9.77
2023-01-29T19:05:37.873Z,11.00
2023-01-29T19:08:05.761Z,10.48
2023-01-29T19:10:33.777Z,11.50
2023-01-29T19:13:01.484Z,10.10
2023-01-29T19:15:28.731Z,10.75
2023-01-29T19:17:56.729Z,10.40
2023-01-29T19:20:23.604Z,9.90
2023-01-29T19:22:50.637Z,11.77
2023-01-29T19:25:19.601Z,11.50
2023-01-29T19:30:14.211Z,10.82
2023-01-29T19:32:41.442Z,10.73
2023-01-29T19:35:08.495Z,9.73
2023-01-29T19:37:35.394Z,10.35
2023-01-29T19:40:02.387Z,12.02
2023-01-29T19:42:29.469Z,10.38
2023-01-29T19:44:56.453Z,9.43
2023-01-29T19:47:23.421Z,9.65
2023-01-29T19:49:50.354Z,10.30
2023-01-29T19:52:49.882Z,9.73
2023-01-29T19:55:18.580Z,8.90
2023-01-29T19:57:45.834Z,9.52
2023-01-29T20:00:15.472Z,8.13
2023-01-29T20:02:42.332Z,9.10
2023-01-29T20:05:12.019Z,7.80
2023-01-29T20:07:40.038Z,9.02
2023-01-29T20:10:11.275Z,8.50
2023-01-29T20:12:39.662Z,8.38
2023-01-29T20:15:07.504Z,8.90
2023-01-29T20:17:34.423Z,9.90
2023-01-29T20:20:01.289Z,9.07
2023-01-29T20:22:29.967Z,8.63
2023-01-29T20:24:57.088Z,8.52
2023-01-29T20:27:24.559Z,8.63
2023-01-29T20:29:52.588Z,11.50
2023-01-29T20:32:19.818Z,9.40
2023-01-29T20:34:51.812Z,9.23
2023-01-29T20:37:19.543Z,10.05
2023-01-29T20:39:47.118Z,9.02
2023-01-29T20:42:14.136Z,7.93
2023-01-29T20:44:41.685Z,7.88
2023-01-29T20:47:08.668Z,8.18
2023-01-29T20:49:35.719Z,8.13
2023-01-29T20:52:02.657Z,7.80
2023-01-29T20:54:30.043Z,7.75
2023-01-29T20:56:57.255Z,8.10
2023-01-29T20:59:24.402Z,8.70
2023-01-29T21:01:51.455Z,8.80
2023-01-29T21:04:18.451Z,8.07
2023-01-29T21:06:45.388Z,7.97
2023-01-29T21:09:12.220Z,8.73
2023-01-29T21:11:39.144Z,8.52
2023-01-29T21:14:06.089Z,7.43
2023-01-29T21:16:33.003Z,8.40
2023-01-29T21:19:00.055Z,8.82
2023-01-29T21:21:27.076Z,7.88
2023-01-29T21:23:54.480Z,6.90
2023-01-29T21:26:23.218Z,7.18
2023-01-29T21:28:50.138Z,8.27
2023-01-29T21:31:17.692Z,9.27
2023-01-29T21:33:44.795Z,9.10
2023-01-29T21:36:12.299Z,9.32
2023-01-29T21:38:39.928Z,10.60
2023-01-29T21:41:09.986Z,9.25
2023-01-29T21:43:37.831Z,7.55
2023-01-29T21:46:13.793Z,9.88
2023-01-29T21:48:41.068Z,8.13
2023-01-29T21:51:08.317Z,8.27
2023-01-29T21:53:36.630Z,8.18
2023-01-29T21:56:05.915Z,6.68
2023-01-29T22:01:28.036Z,7.60
2023-01-29T22:03:47.544Z,7.95
2023-01-29T22:06:15.376Z,7.50
2023-01-29T22:08:42.674Z,7.50
2023-01-29T22:11:10.096Z,8.40
2023-01-29T22:13:37.290Z,7.95
2023-01-29T22:16:05.853Z,7.65
2023-01-29T22:18:33.204Z,7.43
2023-01-29T22:21:02.641Z,7.88
2023-01-29T22:23:31.181Z,7.65
2023-01-29T22:26:07.190Z,8.30
2023-01-29T22:28:35.074Z,7.72
2023-01-29T22:31:04.088Z,8.95
2023-01-29T22:35:58.731Z,7.95
2023-01-29T22:38:25.998Z,5.93
2023-01-29T22:40:54.623Z,7.13
2023-01-29T22:43:22.747Z,8.60
2023-01-29T22:45:49.568Z,7.53
2023-01-29T22:48:16.500Z,7.78
2023-01-29T22:50:53.786Z,6.90
2023-01-29T22:53:20.862Z,8.48
2023-01-29T22:55:55.701Z,7.78
2023-01-29T22:58:22.680Z,7.18
2023-01-29T23:00:52.276Z,8.18
2023-01-29T23:03:19.132Z,7.80
2023-01-29T23:05:46.040Z,7.95
2023-01-29T23:08:12.937Z,8.18
2023-01-29T23:10:39.773Z,8.43
2023-01-29T23:13:06.723Z,8.52
2023-01-29T23:15:33.548Z,9.35
2023-01-29T23:18:00.467Z,9.13
2023-01-29T23:20:27.376Z,8.90
2023-01-29T23:22:54.368Z,9.23
2023-01-29T23:25:21.276Z,8.38
2023-01-29T23:27:48.179Z,8.98
2023-01-29T23:30:15.068Z,9.88
2023-01-29T23:32:42.438Z,8.45
2023-01-29T23:35:09.690Z,9.82
2023-01-29T23:37:36.570Z,9.88
2023-01-29T23:40:03.941Z,9.38
2023-01-29T23:42:30.880Z,9.90
2023-01-29T23:44:57.928Z,10.25
2023-01-29T23:47:24.791Z,8.55
2023-01-29T23:49:52.814Z,9.55
2023-01-29T23:52:19.852Z,9.52
2023-01-29T23:54:46.677Z,9.65
2023-01-29T23:57:13.574Z,10.43
2023-01-29T23:59:40.386Z,10.63
